Time;durP1;ratioP1;P1;durP2;ratioP2;P2;SDS_P1;SDS_P2;PMS_P1;PMS_P2;Temp;Humidity;BMP_temperature;BMP_pressure;BME280_temperature;BME280_humidity;BME280_pressure;Samples;Min_cycle;Max_cycle;Signal;HPM_P1;HPM_P2
2021/01/26 00:01:01;;;;;;;41.53;23.10;;;0.80;99.90;;;;;;5031324;28;20040;-45
2021/01/26 00:03:26;;;;;;;48.58;24.73;;;0.80;99.90;;;;;;5031148;28;20583;-47
2021/01/26 00:05:52;;;;;;;46.10;23.75;;;0.90;99.90;;;;;;5030320;28;20038;-44
2021/01/26 00:08:19;;;;;;;52.10;27.20;;;0.80;99.90;;;;;;5031122;28;20034;-46
2021/01/26 00:10:44;;;;;;;51.92;24.73;;;0.80;99.90;;;;;;5030767;28;20025;-45
2021/01/26 00:13:10;;;;;;;51.53;24.83;;;0.80;99.90;;;;;;5030979;28;20110;-44
2021/01/26 00:15:35;;;;;;;49.88;25.38;;;0.90;99.90;;;;;;5028625;28;20158;-43
2021/01/26 00:18:02;;;;;;;44.65;23.75;;;1.00;99.90;;;;;;5031109;28;20013;-45
2021/01/26 00:20:28;;;;;;;52.80;26.80;;;1.00;99.90;;;;;;5030439;28;20483;-44
2021/01/26 00:22:54;;;;;;;46.47;25.23;;;1.00;99.90;;;;;;5030424;28;20052;-44
2021/01/26 00:25:24;;;;;;;46.10;25.17;;;1.00;99.90;;;;;;5030034;28;20033;-45
2021/01/26 00:27:49;;;;;;;49.15;25.05;;;1.00;99.90;;;;;;5031162;28;20029;-44
2021/01/26 00:30:22;;;;;;;49.85;26.13;;;1.00;99.90;;;;;;5030079;28;20025;-46
2021/01/26 00:32:48;;;;;;;46.85;24.23;;;1.00;99.90;;;;;;5029839;28;20030;-46
2021/01/26 00:35:16;;;;;;;54.08;25.98;;;1.00;99.90;;;;;;5029162;28;20043;-46
2021/01/26 00:37:42;;;;;;;43.72;25.00;;;1.10;99.90;;;;;;5030105;28;20025;-45
2021/01/26 00:40:08;;;;;;;45.38;24.10;;;1.00;99.90;;;;;;5030833;28;20109;-46
2021/01/26 00:42:34;;;;;;;43.58;24.63;;;1.10;99.90;;;;;;5029922;28;20088;-46
2021/01/26 00:45:01;;;;;;;50.55;26.02;;;1.10;99.90;;;;;;5029742;28;20451;-45
2021/01/26 00:47:26;;;;;;;45.13;25.63;;;1.10;99.90;;;;;;5030092;28;20130;-48
2021/01/26 00:49:52;;;;;;;46.67;23.85;;;1.10;99.90;;;;;;5030876;28;20021;-47
2021/01/26 00:52:17;;;;;;;44.30;24.13;;;1.10;99.90;;;;;;5029595;28;20033;-45
2021/01/26 00:54:43;;;;;;;51.85;25.73;;;1.10;99.90;;;;;;5027950;28;20014;-49
2021/01/26 00:57:08;;;;;;;43.42;23.48;;;1.10;99.90;;;;;;5028101;28;20269;-45
2021/01/26 00:59:34;;;;;;;46.55;25.35;;;1.10;99.90;;;;;;5029856;28;20037;-44
2021/01/26 01:01:59;;;;;;;48.47;24.70;;;1.10;99.90;;;;;;5029604;28;20038;-46
2021/01/26 01:04:25;;;;;;;40.83;23.00;;;1.10;99.90;;;;;;5028676;28;20475;-44
2021/01/26 01:06:50;;;;;;;43.50;25.05;;;1.10;99.90;;;;;;5029589;28;20049;-44
2021/01/26 01:09:16;;;;;;;46.53;24.98;;;1.10;99.90;;;;;;5030050;28;20029;-45
2021/01/26 01:11:41;;;;;;;49.60;26.17;;;1.10;99.90;;;;;;5029688;28;20104;-47
2021/01/26 01:14:07;;;;;;;47.30;26.10;;;1.10;99.90;;;;;;5029739;28;20033;-45
2021/01/26 01:16:33;;;;;;;52.38;26.65;;;1.10;99.90;;;;;;5028732;28;20406;-46
2021/01/26 01:18:58;;;;;;;47.17;26.02;;;1.20;99.90;;;;;;5029072;28;20025;-45
2021/01/26 01:21:24;;;;;;;46.47;26.05;;;1.10;99.90;;;;;;5028821;28;20033;-46
2021/01/26 01:23:49;;;;;;;45.97;24.95;;;1.20;99.90;;;;;;5029898;28;20021;-44
2021/01/26 01:26:15;;;;;;;45.65;24.70;;;1.20;99.90;;;;;;5028426;28;20025;-45
2021/01/26 01:28:40;;;;;;;44.17;24.15;;;1.20;99.90;;;;;;5028922;28;20022;-48
2021/01/26 01:31:06;;;;;;;55.90;27.55;;;1.20;99.90;;;;;;5028443;28;20172;-46
2021/01/26 01:33:31;;;;;;;45.83;25.67;;;1.20;99.90;;;;;;5023543;28;20383;-47
2021/01/26 01:35:56;;;;;;;45.00;24.58;;;1.20;99.90;;;;;;5027138;28;20480;-44
2021/01/26 01:38:22;;;;;;;52.17;26.48;;;1.20;99.90;;;;;;5028282;28;20036;-44
2021/01/26 01:40:52;;;;;;;47.67;25.75;;;1.20;99.90;;;;;;5029569;28;20044;-47
2021/01/26 01:43:17;;;;;;;49.75;27.73;;;1.10;99.90;;;;;;5029756;28;20486;-46
2021/01/26 01:45:43;;;;;;;46.15;25.25;;;1.20;99.90;;;;;;5027832;28;20067;-44
2021/01/26 01:48:15;;;;;;;48.50;26.20;;;1.20;99.90;;;;;;5029686;28;20286;-46
2021/01/26 01:50:50;;;;;;;45.25;26.13;;;1.20;99.90;;;;;;5028588;28;20049;-46
2021/01/26 01:53:35;;;;;;;50.90;27.67;;;1.20;99.90;;;;;;5029529;28;20018;-46
2021/01/26 01:56:08;;;;;;;48.22;24.83;;;1.20;99.90;;;;;;5028044;28;20021;-45
2021/01/26 01:58:43;;;;;;;54.17;27.08;;;1.20;99.90;;;;;;5029284;28;20112;-43
2021/01/26 02:01:12;;;;;;;46.30;25.55;;;1.30;99.90;;;;;;5028639;28;20079;-46
2021/01/26 02:03:43;;;;;;;46.38;25.92;;;1.20;99.90;;;;;;5029179;28;20351;-46
2021/01/26 02:06:09;;;;;;;51.33;26.95;;;1.20;99.90;;;;;;5028877;28;20021;-46
2021/01/26 02:08:41;;;;;;;49.65;27.40;;;1.10;99.90;;;;;;5027973;28;20078;-45
2021/01/26 02:11:07;;;;;;;50.17;25.65;;;1.20;99.90;;;;;;5029473;28;20394;-47
2021/01/26 02:13:33;;;;;;;52.03;27.83;;;1.10;99.90;;;;;;5028797;28;20044;-46
2021/01/26 02:16:02;;;;;;;43.42;25.98;;;1.10;99.90;;;;;;5027344;28;20112;-44
2021/01/26 02:18:48;;;;;;;50.20;26.05;;;1.10;99.90;;;;;;5028952;28;20041;-45
2021/01/26 02:21:44;;;;;;;44.50;24.77;;;1.20;99.90;;;;;;5028023;28;20053;-45
2021/01/26 02:24:52;;;;;;;45.50;25.30;;;1.20;99.90;;;;;;5028680;28;20060;-44
2021/01/26 02:27:48;;;;;;;43.13;24.50;;;1.20;99.90;;;;;;5028354;28;20025;-46
2021/01/26 02:30:16;;;;;;;49.38;25.58;;;1.20;99.90;;;;;;5028154;28;20030;-44
2021/01/26 02:33:33;;;;;;;40.55;23.92;;;1.20;99.90;;;;;;5028195;28;20025;-43
2021/01/26 02:36:32;;;;;;;46.83;24.40;;;1.20;99.90;;;;;;5027469;28;20021;-44
2021/01/26 02:39:35;;;;;;;44.38;23.98;;;1.20;99.90;;;;;;5028549;28;20406;-44
2021/01/26 02:42:36;;;;;;;46.28;22.85;;;1.20;99.90;;;;;;5028132;28;20033;-44
2021/01/26 02:45:34;;;;;;;41.47;22.23;;;1.20;99.90;;;;;;4990512;28;20033;-45
2021/01/26 02:48:14;;;;;;;43.45;21.75;;;1.30;99.90;;;;;;5025909;28;20088;-43
2021/01/26 02:51:09;;;;;;;39.15;21.67;;;1.20;99.90;;;;;;5028229;28;20028;-44
2021/01/26 02:53:53;;;;;;;41.67;21.60;;;1.20;99.90;;;;;;5017689;28;20044;-45
2021/01/26 02:56:28;;;;;;;39.85;21.77;;;1.30;99.90;;;;;;5026761;28;20033;-45
2021/01/26 02:59:00;;;;;;;42.20;22.60;;;1.30;99.90;;;;;;5028320;28;20112;-44
2021/01/26 03:01:48;;;;;;;45.00;23.30;;;1.30;99.90;;;;;;5027170;28;20023;-45
2021/01/26 03:04:21;;;;;;;43.47;21.60;;;1.30;99.90;;;;;;4966659;28;20035;-44
2021/01/26 03:06:51;;;;;;;37.97;20.80;;;1.30;99.90;;;;;;4965359;28;20039;-44
2021/01/26 03:09:25;;;;;;;41.20;22.27;;;1.30;99.90;;;;;;5004750;28;20678;-43
2021/01/26 03:11:58;;;;;;;39.45;21.45;;;1.30;99.90;;;;;;5020048;28;20043;-44
2021/01/26 03:14:44;;;;;;;37.35;20.77;;;1.30;99.90;;;;;;5027351;28;20446;-45
2021/01/26 03:17:20;;;;;;;38.70;21.17;;;1.40;99.90;;;;;;5025663;28;20030;-44
2021/01/26 03:19:50;;;;;;;38.67;19.95;;;1.30;99.90;;;;;;5027462;28;20116;-45
2021/01/26 03:22:21;;;;;;;37.83;20.27;;;1.30;99.90;;;;;;5027444;28;20053;-45
2021/01/26 03:24:50;;;;;;;37.67;20.17;;;1.30;99.90;;;;;;5026256;28;20078;-45
2021/01/26 03:27:19;;;;;;;35.60;19.42;;;1.30;99.90;;;;;;5027209;28;20017;-43
2021/01/26 03:29:48;;;;;;;36.03;20.90;;;1.30;99.90;;;;;;5026553;28;20026;-44
2021/01/26 03:32:22;;;;;;;38.25;19.65;;;1.30;99.90;;;;;;5027659;28;20036;-43
2021/01/26 03:34:47;;;;;;;39.13;19.73;;;1.30;99.90;;;;;;5026769;28;20034;-44
2021/01/26 03:37:13;;;;;;;43.63;20.23;;;1.40;99.90;;;;;;5027572;28;20102;-44
2021/01/26 03:39:39;;;;;;;37.58;19.55;;;1.40;99.90;;;;;;5027637;28;20572;-43
2021/01/26 03:42:06;;;;;;;37.63;19.08;;;1.30;99.90;;;;;;5026932;28;20096;-43
2021/01/26 03:44:32;;;;;;;32.38;17.88;;;1.40;99.90;;;;;;5026890;28;20402;-44
2021/01/26 03:47:26;;;;;;;29.58;16.30;;;1.40;99.90;;;;;;5027346;28;20498;-44
2021/01/26 03:49:57;;;;;;;34.85;18.70;;;1.40;99.90;;;;;;5027782;28;20108;-42
2021/01/26 03:52:41;;;;;;;30.45;17.25;;;1.50;99.90;;;;;;5027246;28;20098;-44
2021/01/26 03:55:36;;;;;;;28.98;17.13;;;1.50;99.90;;;;;;5026247;28;20029;-44
2021/01/26 03:58:29;;;;;;;29.98;16.05;;;1.50;99.90;;;;;;5027785;28;20065;-44
2021/01/26 04:01:26;;;;;;;34.10;17.65;;;1.50;99.90;;;;;;5027109;28;20045;-44
2021/01/26 04:04:07;;;;;;;28.73;16.25;;;1.50;99.90;;;;;;5027214;28;20022;-45
2021/01/26 04:06:40;;;;;;;30.10;15.65;;;1.60;99.90;;;;;;5026791;28;20026;-44
2021/01/26 04:09:11;;;;;;;26.95;16.05;;;1.60;99.90;;;;;;5008044;28;20015;-45
2021/01/26 04:11:50;;;;;;;28.35;15.88;;;1.50;99.90;;;;;;5007374;28;20108;-44
2021/01/26 04:14:25;;;;;;;30.55;16.02;;;1.60;99.90;;;;;;5007523;28;20034;-45
2021/01/26 04:17:15;;;;;;;30.63;16.25;;;1.50;99.90;;;;;;5027229;28;20033;-44
2021/01/26 04:19:49;;;;;;;;;;;1.50;99.90;;;;;;5027421;28;20033;-45
2021/01/26 04:22:15;;;;;;;24.67;14.70;;;1.50;99.90;;;;;;5026714;28;20497;-45
2021/01/26 04:24:41;;;;;;;26.00;15.48;;;1.50;99.90;;;;;;5026385;28;20037;-45
2021/01/26 04:27:13;;;;;;;25.73;15.32;;;1.50;99.90;;;;;;5008665;28;20032;-46
2021/01/26 04:29:38;;;;;;;29.15;15.38;;;1.40;99.90;;;;;;5027219;28;20028;-46
2021/01/26 04:32:04;;;;;;;25.75;15.07;;;1.40;99.90;;;;;;5028802;28;20033;-46
2021/01/26 04:34:30;;;;;;;27.55;15.93;;;1.30;99.90;;;;;;5030151;28;20039;-46
2021/01/26 04:36:56;;;;;;;28.95;16.35;;;1.30;99.90;;;;;;5012657;28;20069;-45
2021/01/26 04:39:21;;;;;;;27.92;15.85;;;1.40;99.90;;;;;;5029262;28;20445;-46
2021/01/26 04:41:59;;;;;;;28.83;16.73;;;1.30;99.90;;;;;;5030600;28;20079;-44
2021/01/26 04:44:38;;;;;;;30.60;15.95;;;1.40;99.90;;;;;;5029177;28;20025;-45
2021/01/26 04:47:22;;;;;;;30.42;17.70;;;1.40;99.90;;;;;;5030792;28;20388;-44
2021/01/26 04:49:57;;;;;;;27.00;15.30;;;1.40;99.90;;;;;;5029826;28;20029;-46
2021/01/26 04:52:38;;;;;;;29.80;16.38;;;1.40;99.90;;;;;;5030797;28;20131;-45
2021/01/26 04:55:32;;;;;;;26.58;16.05;;;1.40;99.90;;;;;;5027272;28;20052;-43
2021/01/26 04:58:41;;;;;;;28.80;16.58;;;1.40;99.90;;;;;;5030829;28;20438;-45
2021/01/26 05:01:25;;;;;;;29.45;16.33;;;1.40;99.90;;;;;;5029380;28;20203;-45
2021/01/26 05:03:59;;;;;;;25.48;15.13;;;1.40;99.90;;;;;;5029487;28;20084;-46
2021/01/26 05:06:33;;;;;;;29.83;16.45;;;1.40;99.90;;;;;;5029328;28;20091;-45
2021/01/26 05:09:02;;;;;;;26.67;15.52;;;1.50;99.90;;;;;;5007644;28;20022;-46
2021/01/26 05:11:31;;;;;;;27.23;15.65;;;1.50;99.90;;;;;;5030014;28;20030;-48
2021/01/26 05:14:22;;;;;;;36.47;16.48;;;1.50;99.90;;;;;;5026205;28;20037;-44
2021/01/26 05:17:02;;;;;;;33.55;19.83;;;1.50;99.90;;;;;;5011548;28;20029;-44
2021/01/26 05:19:38;;;;;;;33.15;17.75;;;1.40;99.90;;;;;;5011841;28;20056;-45
2021/01/26 05:22:27;;;;;;;31.98;16.83;;;1.40;99.90;;;;;;5024305;28;20025;-46
2021/01/26 05:25:04;;;;;;;34.10;19.08;;;1.40;99.90;;;;;;5030908;28;20548;-44
2021/01/26 05:27:30;;;;;;;34.92;19.70;;;1.40;99.90;;;;;;5030522;28;20029;-48
2021/01/26 05:29:57;;;;;;;35.78;21.50;;;1.40;99.90;;;;;;5031446;28;20103;-45
2021/01/26 05:32:23;;;;;;;33.40;18.20;;;1.40;99.90;;;;;;5031389;28;20030;-45
2021/01/26 05:34:51;;;;;;;34.22;19.15;;;1.40;99.90;;;;;;5030478;28;20079;-43
2021/01/26 05:37:18;;;;;;;30.92;17.88;;;1.40;99.90;;;;;;5030489;28;20513;-44
2021/01/26 05:39:52;;;;;;;32.03;17.90;;;1.50;99.90;;;;;;5031108;28;20478;-45
2021/01/26 05:42:19;;;;;;;32.72;18.48;;;1.50;99.90;;;;;;5029853;28;20098;-46
2021/01/26 05:44:56;;;;;;;32.80;18.02;;;1.50;99.90;;;;;;5020541;28;20058;-45
2021/01/26 05:47:35;;;;;;;36.70;18.23;;;1.50;99.90;;;;;;5017922;28;20033;-46
2021/01/26 05:50:01;;;;;;;33.72;19.48;;;1.60;99.90;;;;;;5020572;28;20018;-43
2021/01/26 05:52:39;;;;;;;34.42;19.27;;;1.60;99.90;;;;;;5018854;28;20117;-44
2021/01/26 05:55:23;;;;;;;34.83;18.35;;;1.50;99.90;;;;;;5020265;28;20040;-44
2021/01/26 05:57:49;;;;;;;32.03;19.00;;;1.50;99.90;;;;;;5020815;28;20427;-47
2021/01/26 06:00:26;;;;;;;31.75;17.90;;;1.50;99.90;;;;;;5021097;28;20028;-45
2021/01/26 06:03:20;;;;;;;35.50;19.50;;;1.60;99.90;;;;;;5021281;28;20132;-44
2021/01/26 06:06:03;;;;;;;33.35;18.92;;;1.60;99.90;;;;;;5017453;28;20076;-45
2021/01/26 06:08:30;;;;;;;33.38;18.63;;;1.60;99.90;;;;;;5021251;28;20120;-44
2021/01/26 06:10:56;;;;;;;35.03;20.13;;;1.60;99.90;;;;;;5026132;28;20354;-45
2021/01/26 06:13:28;;;;;;;41.70;22.85;;;1.60;99.90;;;;;;5017521;28;20030;-47
2021/01/26 06:16:08;;;;;;;37.65;20.58;;;1.60;99.90;;;;;;5008553;28;20491;-45
2021/01/26 06:18:34;;;;;;;38.97;19.25;;;1.60;99.90;;;;;;5009220;28;20423;-46
2021/01/26 06:21:11;;;;;;;36.03;20.45;;;1.60;99.90;;;;;;5009119;28;20041;-43
2021/01/26 06:23:37;;;;;;;36.67;20.08;;;1.60;99.90;;;;;;5007301;28;20519;-45
2021/01/26 06:26:09;;;;;;;36.42;20.98;;;1.60;99.90;;;;;;5004870;28;20056;-45
2021/01/26 06:29:12;;;;;;;37.33;19.60;;;1.60;99.90;;;;;;5008751;28;20026;-45
2021/01/26 06:31:48;;;;;;;36.85;20.40;;;1.60;99.90;;;;;;5008341;28;20032;-46
2021/01/26 06:34:29;;;;;;;35.83;20.13;;;1.70;99.90;;;;;;5008740;28;20041;-43
2021/01/26 06:37:11;;;;;;;36.22;20.50;;;1.70;99.90;;;;;;5008955;28;20049;-44
2021/01/26 06:40:05;;;;;;;32.28;18.55;;;1.70;99.90;;;;;;5008732;28;20025;-45
2021/01/26 06:42:58;;;;;;;37.35;21.10;;;1.70;99.90;;;;;;5008284;28;20045;-46
2021/01/26 06:45:46;;;;;;;37.95;19.90;;;1.70;99.90;;;;;;5007427;28;20072;-45
2021/01/26 06:48:12;;;;;;;38.72;21.38;;;1.70;99.90;;;;;;5008675;28;20579;-45
2021/01/26 06:50:59;;;;;;;35.25;20.25;;;1.70;99.90;;;;;;5008525;28;20022;-45
2021/01/26 06:53:46;;;;;;;36.40;20.92;;;1.70;99.90;;;;;;5008396;28;20404;-45
2021/01/26 06:56:37;;;;;;;32.20;18.02;;;1.70;99.90;;;;;;5006448;28;20028;-43
2021/01/26 06:59:10;;;;;;;42.80;21.27;;;1.70;99.90;;;;;;5006834;28;20033;-45
2021/01/26 07:02:01;;;;;;;38.20;20.90;;;1.70;99.90;;;;;;5008057;28;20029;-45
2021/01/26 07:04:49;;;;;;;31.67;18.85;;;1.70;99.90;;;;;;5007756;28;20026;-45
2021/01/26 07:08:05;;;;;;;40.33;21.75;;;1.80;99.90;;;;;;4996761;28;20065;-45
2021/01/26 07:10:49;;;;;;;37.97;22.08;;;1.80;99.90;;;;;;4983072;28;20026;-44
2021/01/26 07:13:33;;;;;;;34.05;19.33;;;1.80;99.90;;;;;;4976161;28;20046;-44
2021/01/26 07:16:14;;;;;;;41.20;21.95;;;1.70;99.90;;;;;;5008888;28;20049;-44
2021/01/26 07:19:30;;;;;;;38.83;22.90;;;1.80;99.90;;;;;;5018544;28;20021;-44
2021/01/26 07:22:13;;;;;;;35.58;20.77;;;1.80;99.90;;;;;;5004673;28;20049;-46
2021/01/26 07:25:06;;;;;;;32.58;18.95;;;1.80;99.90;;;;;;5015839;28;20042;-44
2021/01/26 07:27:50;;;;;;;34.45;19.85;;;1.80;99.90;;;;;;5024311;28;20523;-45
2021/01/26 07:30:31;;;;;;;42.15;21.95;;;1.80;99.90;;;;;;5022440;28;20418;-44
2021/01/26 07:33:29;;;;;;;42.53;22.42;;;1.80;99.90;;;;;;5008166;28;20376;-45
2021/01/26 07:36:28;;;;;;;40.13;22.83;;;1.80;99.90;;;;;;5007156;28;20038;-44
2021/01/26 07:39:13;;;;;;;38.45;22.30;;;1.80;99.90;;;;;;5007506;28;20034;-43
2021/01/26 07:41:52;;;;;;;33.03;19.40;;;1.90;99.90;;;;;;5007359;28;20310;-43
2021/01/26 07:44:25;;;;;;;40.88;21.38;;;1.80;99.90;;;;;;5007415;28;20091;-44
2021/01/26 07:46:59;;;;;;;34.35;20.83;;;1.90;99.90;;;;;;5007968;28;20033;-44
2021/01/26 07:49:35;;;;;;;32.60;20.23;;;1.90;99.90;;;;;;5007623;28;20025;-46
2021/01/26 07:52:02;;;;;;;36.08;20.38;;;1.90;99.90;;;;;;5008009;28;20029;-45
2021/01/26 07:54:36;;;;;;;40.38;22.90;;;1.90;99.90;;;;;;5007081;28;20034;-45
2021/01/26 07:57:04;;;;;;;37.72;21.00;;;1.90;99.90;;;;;;5024696;28;20417;-44
2021/01/26 07:59:39;;;;;;;37.05;20.35;;;2.00;99.90;;;;;;5027229;28;20029;-44
2021/01/26 08:02:16;;;;;;;45.20;23.55;;;1.90;99.90;;;;;;5026462;28;20286;-46
2021/01/26 08:04:42;;;;;;;41.15;24.52;;;2.00;99.90;;;;;;5026571;28;20043;-44
2021/01/26 08:07:20;;;;;;;39.08;22.35;;;2.00;99.90;;;;;;5029832;28;20678;-44
2021/01/26 08:09:48;;;;;;;40.88;21.17;;;2.00;99.90;;;;;;5031245;28;20021;-45
2021/01/26 08:12:21;;;;;;;42.95;23.50;;;2.00;99.90;;;;;;5030791;28;20025;-44
2021/01/26 08:14:51;;;;;;;43.33;23.83;;;2.10;99.90;;;;;;5030417;28;20541;-44
2021/01/26 08:17:27;;;;;;;;;;;2.00;99.90;;;;;;5032855;28;20060;-44
2021/01/26 08:20:08;;;;;;;39.63;22.20;;;2.10;99.90;;;;;;5031651;28;19941;-45
2021/01/26 08:22:36;;;;;;;43.50;23.10;;;2.10;99.90;;;;;;5026018;28;20025;-47
2021/01/26 08:25:07;;;;;;;47.50;23.83;;;2.10;99.90;;;;;;5020450;28;20029;-45
2021/01/26 08:27:39;;;;;;;41.58;22.88;;;2.10;99.90;;;;;;5029331;28;20383;-45
2021/01/26 08:30:10;;;;;;;40.95;23.38;;;2.10;99.90;;;;;;5029947;28;20025;-48
2021/01/26 08:32:35;;;;;;;45.85;24.55;;;2.10;99.90;;;;;;5023849;28;20363;-46
2021/01/26 08:35:06;;;;;;;42.88;24.42;;;2.00;99.90;;;;;;5011697;28;20026;-46
2021/01/26 08:37:41;;;;;;;43.88;26.25;;;2.00;99.90;;;;;;5019897;28;20153;-45
2021/01/26 08:40:07;;;;;;;44.35;26.13;;;2.00;99.90;;;;;;5020196;28;20026;-46
2021/01/26 08:42:42;;;;;;;48.40;27.63;;;2.00;99.90;;;;;;5013869;28;20025;-46
2021/01/26 08:45:39;;;;;;;53.53;29.63;;;2.00;99.90;;;;;;5029104;28;20540;-45
2021/01/26 08:48:07;;;;;;;47.95;26.58;;;2.00;99.90;;;;;;5011102;28;20103;-45
2021/01/26 08:51:05;;;;;;;57.40;30.38;;;2.00;99.90;;;;;;5010225;28;20076;-45
2021/01/26 08:53:34;;;;;;;52.20;26.85;;;2.00;99.90;;;;;;5009967;28;20040;-46
2021/01/26 08:56:33;;;;;;;49.25;28.00;;;2.10;99.90;;;;;;5019442;28;20465;-47
2021/01/26 08:59:00;;;;;;;48.95;27.55;;;2.00;99.90;;;;;;5030900;28;20028;-44
2021/01/26 09:01:37;;;;;;;47.75;26.65;;;2.00;99.90;;;;;;5031776;28;20030;-45
2021/01/26 09:04:11;;;;;;;50.78;27.30;;;2.00;99.90;;;;;;5016214;28;20026;-45
2021/01/26 09:06:42;;;;;;;52.85;27.65;;;2.10;99.90;;;;;;5010788;28;20108;-46
2021/01/26 09:09:18;;;;;;;56.30;28.02;;;2.10;99.90;;;;;;5011427;28;20014;-45
2021/01/26 09:11:48;;;;;;;51.28;28.88;;;2.10;99.90;;;;;;5011350;28;20034;-44
2021/01/26 09:14:33;;;;;;;51.78;27.13;;;2.10;99.90;;;;;;4993228;28;20479;-45
2021/01/26 09:17:04;;;;;;;51.20;28.75;;;2.20;99.90;;;;;;4991476;28;20034;-44
2021/01/26 09:19:43;;;;;;;50.97;27.92;;;2.20;99.90;;;;;;4990878;28;20030;-44
2021/01/26 09:22:17;;;;;;;46.63;26.23;;;2.20;99.90;;;;;;4991569;28;20026;-47
2021/01/26 09:24:44;;;;;;;46.35;25.63;;;2.20;99.90;;;;;;4990772;28;20019;-46
2021/01/26 09:27:24;;;;;;;43.13;23.40;;;2.20;99.90;;;;;;5007983;28;20509;-45
2021/01/26 09:30:21;;;;;;;40.58;24.02;;;2.20;99.90;;;;;;5011363;28;20534;-47
2021/01/26 09:33:00;;;;;;;46.88;25.90;;;2.30;99.90;;;;;;5011231;28;20030;-44
2021/01/26 09:35:45;;;;;;;46.38;25.88;;;2.30;99.90;;;;;;5010142;28;20030;-47
2021/01/26 09:38:30;;;;;;;48.30;26.08;;;2.30;99.90;;;;;;5010657;28;20045;-44
2021/01/26 09:40:58;;;;;;;46.35;24.88;;;2.40;99.90;;;;;;4993115;28;20030;-47
2021/01/26 09:43:30;;;;;;;40.67;24.30;;;2.50;99.90;;;;;;5010304;28;20076;-47
2021/01/26 09:45:57;;;;;;;44.13;25.27;;;2.60;99.90;;;;;;5009310;28;20804;-44
2021/01/26 09:48:35;;;;;;;43.35;25.73;;;2.60;99.90;;;;;;5010497;28;20145;-45
2021/01/26 09:51:29;;;;;;;41.38;24.77;;;2.70;99.90;;;;;;4990140;28;20029;-44
2021/01/26 09:54:04;;;;;;;45.10;24.00;;;2.70;99.90;;;;;;4987170;28;20616;-47
2021/01/26 09:56:35;;;;;;;42.85;24.15;;;2.80;99.90;;;;;;5002444;28;20021;-45
2021/01/26 09:59:03;;;;;;;43.90;24.63;;;2.80;99.90;;;;;;5010049;28;20017;-46
2021/01/26 10:01:33;;;;;;;43.95;24.52;;;2.90;99.90;;;;;;5010060;28;20494;-45
2021/01/26 10:04:05;;;;;;;45.50;25.15;;;2.90;99.90;;;;;;5009843;28;20435;-45
2021/01/26 10:06:33;;;;;;;41.53;25.25;;;2.90;99.90;;;;;;5008961;28;20026;-47
2021/01/26 10:09:28;;;;;;;47.13;26.83;;;2.90;99.90;;;;;;5010341;28;20053;-47
2021/01/26 10:12:22;;;;;;;41.17;23.60;;;3.00;99.90;;;;;;5010508;28;20113;-46
2021/01/26 10:15:09;;;;;;;40.45;24.73;;;3.00;99.90;;;;;;5029332;28;21508;-45
2021/01/26 10:17:51;;;;;;;46.40;27.65;;;3.10;99.90;;;;;;5029677;28;20072;-51
2021/01/26 10:20:57;;;;;;;49.35;27.80;;;3.20;99.90;;;;;;5029775;28;20024;-45
2021/01/26 10:23:36;;;;;;;48.80;27.15;;;3.20;99.90;;;;;;5029186;28;20029;-46
2021/01/26 10:26:15;;;;;;;52.17;28.95;;;3.20;99.90;;;;;;5028961;28;20029;-45
2021/01/26 10:29:00;;;;;;;50.75;28.95;;;3.20;99.90;;;;;;5029077;28;20478;-46
2021/01/26 10:31:27;;;;;;;44.88;27.25;;;3.20;99.90;;;;;;5029610;28;20456;-45
2021/01/26 10:33:52;;;;;;;47.95;27.95;;;3.20;99.90;;;;;;5029641;28;20517;-45
2021/01/26 10:36:24;;;;;;;48.58;28.40;;;3.30;99.90;;;;;;5028722;28;20033;-44
2021/01/26 10:38:51;;;;;;;47.97;28.33;;;3.40;99.90;;;;;;5029455;28;20022;-45
2021/01/26 10:41:27;;;;;;;52.40;29.58;;;3.50;99.90;;;;;;5029738;28;20025;-48
2021/01/26 10:44:06;;;;;;;51.25;29.20;;;3.60;99.90;;;;;;5029353;28;20029;-47
2021/01/26 10:46:38;;;;;;;49.38;28.30;;;3.60;99.90;;;;;;5028802;28;20045;-44
2021/01/26 10:49:20;;;;;;;48.20;28.38;;;3.70;99.90;;;;;;5029232;28;20466;-47
2021/01/26 10:51:46;;;;;;;46.95;27.52;;;3.80;99.90;;;;;;5019919;28;20057;-48
2021/01/26 10:54:12;;;;;;;51.58;29.70;;;3.70;99.90;;;;;;5008696;28;20068;-45
2021/01/26 10:56:37;;;;;;;52.38;31.27;;;3.70;99.90;;;;;;5015925;28;20029;-45
2021/01/26 10:59:04;;;;;;;55.78;31.42;;;3.70;99.90;;;;;;5027002;28;20026;-46
2021/01/26 11:01:30;;;;;;;54.17;29.60;;;3.70;99.90;;;;;;5028955;28;20079;-45
2021/01/26 11:03:56;;;;;;;52.58;31.63;;;3.70;99.90;;;;;;5029590;28;20029;-45
2021/01/26 11:06:23;;;;;;;59.28;32.38;;;3.70;99.90;;;;;;5029078;28;20709;-45
2021/01/26 11:08:49;;;;;;;51.58;31.05;;;3.70;99.90;;;;;;5029438;28;20067;-45
2021/01/26 11:11:17;;;;;;;60.08;33.53;;;3.80;99.90;;;;;;5029238;28;20644;-44
2021/01/26 11:13:43;;;;;;;55.53;31.85;;;3.80;99.90;;;;;;5029179;28;20379;-45
2021/01/26 11:16:08;;;;;;;57.88;33.22;;;3.80;99.90;;;;;;5024258;28;20047;-45
2021/01/26 11:18:35;;;;;;;53.28;31.65;;;3.80;99.90;;;;;;5000569;28;20075;-44
2021/01/26 11:21:02;;;;;;;56.35;33.25;;;3.80;99.90;;;;;;5017160;28;20029;-45
2021/01/26 11:23:28;;;;;;;55.85;31.67;;;3.80;99.90;;;;;;5019627;28;20034;-44
2021/01/26 11:25:55;;;;;;;56.92;31.27;;;3.80;99.90;;;;;;5016767;28;20379;-46
2021/01/26 11:28:20;;;;;;;56.00;31.42;;;3.90;99.90;;;;;;5024899;28;20044;-46
2021/01/26 11:30:46;;;;;;;59.90;34.53;;;3.80;99.90;;;;;;5028312;28;20481;-45
2021/01/26 11:33:12;;;;;;;53.55;31.70;;;3.90;99.90;;;;;;5022099;28;20523;-45
2021/01/26 11:35:37;;;;;;;55.05;32.55;;;4.00;99.90;;;;;;5021773;28;20026;-48
2021/01/26 11:38:03;;;;;;;51.63;30.52;;;4.20;99.90;;;;;;5009417;28;20557;-45
2021/01/26 11:40:30;;;;;;;50.67;29.75;;;4.40;99.90;;;;;;5024023;28;20041;-45
2021/01/26 11:42:56;;;;;;;52.63;31.23;;;4.60;99.90;;;;;;5024126;28;20044;-46
2021/01/26 11:45:24;;;;;;;52.38;31.20;;;5.00;99.90;;;;;;5023921;28;20021;-47
2021/01/26 11:47:50;;;;;;;57.20;33.55;;;5.20;99.90;;;;;;5013888;28;20025;-45
2021/01/26 11:50:17;;;;;;;47.97;29.98;;;5.20;99.90;;;;;;5023965;28;20522;-45
2021/01/26 11:52:43;;;;;;;45.92;28.90;;;5.30;99.90;;;;;;5024276;28;20028;-46
2021/01/26 11:55:13;;;;;;;49.22;29.42;;;5.80;99.90;;;;;;5022591;28;20026;-48
2021/01/26 11:57:38;;;;;;;45.25;28.88;;;6.40;99.90;;;;;;5019759;28;20076;-45
2021/01/26 12:00:09;;;;;;;45.55;28.15;;;6.50;99.90;;;;;;5014307;28;20034;-47
2021/01/26 12:02:34;;;;;;;46.40;29.17;;;7.10;99.90;;;;;;5013786;28;20111;-45
2021/01/26 12:05:01;;;;;;;45.28;28.90;;;8.00;99.90;;;;;;5013213;28;20117;-47
2021/01/26 12:07:26;;;;;;;40.97;26.38;;;8.90;99.90;;;;;;5013636;28;20107;-48
2021/01/26 12:09:52;;;;;;;40.63;28.02;;;10.00;98.80;;;;;;5013385;28;20052;-49
2021/01/26 12:12:17;;;;;;;38.55;26.15;;;9.60;96.80;;;;;;5012079;28;20030;-46
2021/01/26 12:14:43;;;;;;;43.60;26.70;;;9.00;96.40;;;;;;5011892;28;20505;-46
2021/01/26 12:17:08;;;;;;;38.35;26.00;;;8.10;98.70;;;;;;5012542;28;20120;-45
2021/01/26 12:19:34;;;;;;;37.28;25.52;;;7.70;99.90;;;;;;5012805;28;20373;-47
2021/01/26 12:22:00;;;;;;;35.20;24.35;;;7.70;99.90;;;;;;4995012;28;20794;-46
2021/01/26 12:24:26;;;;;;;38.20;24.50;;;7.40;99.90;;;;;;4994150;28;20052;-46
2021/01/26 12:26:54;;;;;;;44.25;28.63;;;7.00;99.90;;;;;;5012613;28;20022;-47
2021/01/26 12:29:19;;;;;;;39.25;26.15;;;6.70;99.90;;;;;;5031430;28;20383;-45
2021/01/26 12:31:45;;;;;;;41.13;26.10;;;6.50;99.90;;;;;;5032526;28;20022;-47
2021/01/26 12:34:10;;;;;;;43.10;26.42;;;6.90;99.90;;;;;;5032101;28;20029;-46
2021/01/26 12:36:36;;;;;;;36.90;22.95;;;7.50;99.90;;;;;;5031024;28;20026;-46
2021/01/26 12:39:03;;;;;;;34.40;24.45;;;8.30;99.90;;;;;;5031902;28;20068;-46
2021/01/26 12:41:29;;;;;;;31.58;23.17;;;9.00;98.10;;;;;;5032172;28;20112;-47
2021/01/26 12:43:54;;;;;;;36.10;25.02;;;8.70;97.30;;;;;;5031611;28;20030;-48
2021/01/26 12:46:19;;;;;;;30.30;20.77;;;8.00;98.20;;;;;;5031214;28;20042;-45
2021/01/26 12:48:45;;;;;;;32.17;19.83;;;7.70;99.90;;;;;;5032370;28;20029;-43
2021/01/26 12:51:10;;;;;;;33.53;21.40;;;7.10;99.90;;;;;;5032045;28;20058;-46
2021/01/26 12:53:36;;;;;;;35.80;21.60;;;6.50;99.90;;;;;;5031963;28;20022;-44
2021/01/26 12:56:01;;;;;;;37.70;22.95;;;6.20;99.90;;;;;;5031099;28;20041;-45
2021/01/26 12:58:27;;;;;;;39.50;23.35;;;5.90;99.90;;;;;;5031497;28;20113;-45
2021/01/26 13:00:52;;;;;;;42.08;24.83;;;5.50;99.90;;;;;;5031248;28;20022;-46
2021/01/26 13:03:18;;;;;;;39.85;24.55;;;5.10;99.90;;;;;;5031112;28;20021;-44
2021/01/26 13:05:43;;;;;;;42.30;25.30;;;4.90;99.90;;;;;;5031689;28;20102;-47
2021/01/26 13:08:09;;;;;;;48.92;26.40;;;4.80;99.90;;;;;;5032266;28;20029;-46
2021/01/26 13:10:34;;;;;;;46.17;27.40;;;4.60;99.90;;;;;;5030829;28;20466;-47
2021/01/26 13:13:00;;;;;;;45.70;26.42;;;4.40;99.90;;;;;;5026295;28;20036;-46